sensor_id;sensor_type;location;lat;lon;timestamp;P1;durP1;ratioP1;P2;durP2;ratioP2
7045;SDS011;3564;53.326;10.356;2023-03-14T00:01:21;2.53;;;1.93;;
7045;SDS011;3564;53.326;10.356;2023-03-14T00:03:46;3.17;;;1.80;;
7045;SDS011;3564;53.326;10.356;2023-03-14T00:06:13;2.07;;;1.87;;
7045;SDS011;3564;53.326;10.356;2023-03-14T00:08:39;2.40;;;1.80;;
7045;SDS011;3564;53.326;10.356;2023-03-14T00:11:10;3.07;;;1.70;;
7045;SDS011;3564;53.326;10.356;2023-03-14T00:13:37;3.60;;;2.00;;
7045;SDS011;3564;53.326;10.356;2023-03-14T00:16:03;3.30;;;1.80;;
7045;SDS011;3564;53.326;10.356;2023-03-14T00:18:31;2.43;;;2.00;;
7045;SDS011;3564;53.326;10.356;2023-03-14T00:20:57;3.97;;;2.33;;
7045;SDS011;3564;53.326;10.356;2023-03-14T00:23:24;6.20;;;2.00;;
7045;SDS011;3564;53.326;10.356;2023-03-14T00:25:51;3.77;;;2.00;;
7045;SDS011;3564;53.326;10.356;2023-03-14T00:28:17;2.70;;;1.80;;
7045;SDS011;3564;53.326;10.356;2023-03-14T00:30:43;5.03;;;1.97;;
7045;SDS011;3564;53.326;10.356;2023-03-14T00:33:08;2.63;;;1.70;;
7045;SDS011;3564;53.326;10.356;2023-03-14T00:35:34;4.40;;;2.30;;
7045;SDS011;3564;53.326;10.356;2023-03-14T00:37:59;5.63;;;2.57;;
7045;SDS011;3564;53.326;10.356;2023-03-14T00:40:25;2.57;;;2.03;;
7045;SDS011;3564;53.326;10.356;2023-03-14T00:42:50;4.17;;;1.90;;
7045;SDS011;3564;53.326;10.356;2023-03-14T00:45:16;3.93;;;2.00;;
7045;SDS011;3564;53.326;10.356;2023-03-14T00:47:41;3.40;;;2.00;;
7045;SDS011;3564;53.326;10.356;2023-03-14T00:50:10;2.70;;;1.80;;
7045;SDS011;3564;53.326;10.356;2023-03-14T00:52:36;3.53;;;2.00;;
7045;SDS011;3564;53.326;10.356;2023-03-14T00:55:02;5.07;;;2.17;;
7045;SDS011;3564;53.326;10.356;2023-03-14T00:57:28;4.63;;;2.00;;
7045;SDS011;3564;53.326;10.356;2023-03-14T00:59:53;4.10;;;2.27;;
7045;SDS011;3564;53.326;10.356;2023-03-14T01:02:19;6.87;;;2.70;;
7045;SDS011;3564;53.326;10.356;2023-03-14T01:04:46;2.60;;;1.93;;
7045;SDS011;3564;53.326;10.356;2023-03-14T01:07:14;3.93;;;2.20;;
7045;SDS011;3564;53.326;10.356;2023-03-14T01:09:40;5.10;;;2.50;;
7045;SDS011;3564;53.326;10.356;2023-03-14T01:12:05;3.87;;;2.00;;
7045;SDS011;3564;53.326;10.356;2023-03-14T01:14:31;4.37;;;2.50;;
7045;SDS011;3564;53.326;10.356;2023-03-14T01:16:57;5.33;;;2.30;;
7045;SDS011;3564;53.326;10.356;2023-03-14T01:19:26;6.03;;;2.40;;
7045;SDS011;3564;53.326;10.356;2023-03-14T01:21:52;6.80;;;2.63;;
7045;SDS011;3564;53.326;10.356;2023-03-14T01:24:18;8.43;;;2.77;;
7045;SDS011;3564;53.326;10.356;2023-03-14T01:26:43;7.47;;;2.97;;
7045;SDS011;3564;53.326;10.356;2023-03-14T01:29:09;5.47;;;2.00;;
7045;SDS011;3564;53.326;10.356;2023-03-14T01:31:34;7.03;;;2.60;;
7045;SDS011;3564;53.326;10.356;2023-03-14T01:34:00;6.53;;;2.53;;
7045;SDS011;3564;53.326;10.356;2023-03-14T01:36:26;5.17;;;2.30;;
7045;SDS011;3564;53.326;10.356;2023-03-14T01:38:51;4.23;;;2.40;;
7045;SDS011;3564;53.326;10.356;2023-03-14T01:41:19;3.33;;;2.10;;
7045;SDS011;3564;53.326;10.356;2023-03-14T01:43:49;6.43;;;2.67;;
7045;SDS011;3564;53.326;10.356;2023-03-14T01:49:19;5.70;;;2.57;;
7045;SDS011;3564;53.326;10.356;2023-03-14T01:52:05;6.70;;;3.13;;
7045;SDS011;3564;53.326;10.356;2023-03-14T01:54:39;4.10;;;2.37;;
7045;SDS011;3564;53.326;10.356;2023-03-14T01:59:39;6.07;;;2.70;;
7045;SDS011;3564;53.326;10.356;2023-03-14T02:02:07;4.23;;;2.43;;
7045;SDS011;3564;53.326;10.356;2023-03-14T02:04:36;5.43;;;2.20;;
7045;SDS011;3564;53.326;10.356;2023-03-14T02:07:12;4.77;;;2.40;;
7045;SDS011;3564;53.326;10.356;2023-03-14T02:10:12;5.90;;;2.50;;
7045;SDS011;3564;53.326;10.356;2023-03-14T02:12:39;4.30;;;2.23;;
7045;SDS011;3564;53.326;10.356;2023-03-14T02:15:05;3.50;;;2.23;;
7045;SDS011;3564;53.326;10.356;2023-03-14T02:17:32;4.00;;;2.53;;
7045;SDS011;3564;53.326;10.356;2023-03-14T02:22:30;6.77;;;2.27;;
7045;SDS011;3564;53.326;10.356;2023-03-14T02:28:05;4.80;;;2.23;;
7045;SDS011;3564;53.326;10.356;2023-03-14T02:30:31;6.03;;;2.50;;
7045;SDS011;3564;53.326;10.356;2023-03-14T02:33:03;3.13;;;2.37;;
7045;SDS011;3564;53.326;10.356;2023-03-14T02:35:42;3.33;;;2.10;;
7045;SDS011;3564;53.326;10.356;2023-03-14T02:40:47;6.10;;;2.30;;
7045;SDS011;3564;53.326;10.356;2023-03-14T02:43:14;3.53;;;2.00;;
7045;SDS011;3564;53.326;10.356;2023-03-14T02:48:18;7.53;;;2.03;;
7045;SDS011;3564;53.326;10.356;2023-03-14T02:50:57;4.43;;;2.10;;
7045;SDS011;3564;53.326;10.356;2023-03-14T02:53:31;3.23;;;2.10;;
7045;SDS011;3564;53.326;10.356;2023-03-14T02:55:58;3.70;;;1.70;;
7045;SDS011;3564;53.326;10.356;2023-03-14T02:58:25;4.13;;;2.03;;
7045;SDS011;3564;53.326;10.356;2023-03-14T03:00:51;3.83;;;2.13;;
7045;SDS011;3564;53.326;10.356;2023-03-14T03:03:17;4.47;;;2.17;;
7045;SDS011;3564;53.326;10.356;2023-03-14T03:05:42;7.50;;;2.30;;
7045;SDS011;3564;53.326;10.356;2023-03-14T03:08:10;4.13;;;2.17;;
7045;SDS011;3564;53.326;10.356;2023-03-14T03:10:36;5.07;;;2.20;;
7045;SDS011;3564;53.326;10.356;2023-03-14T03:13:01;5.27;;;2.00;;
7045;SDS011;3564;53.326;10.356;2023-03-14T03:15:28;2.90;;;1.93;;
7045;SDS011;3564;53.326;10.356;2023-03-14T03:17:54;2.33;;;1.80;;
7045;SDS011;3564;53.326;10.356;2023-03-14T03:20:19;5.37;;;2.17;;
7045;SDS011;3564;53.326;10.356;2023-03-14T03:22:45;5.53;;;2.40;;
7045;SDS011;3564;53.326;10.356;2023-03-14T03:25:11;2.90;;;2.00;;
7045;SDS011;3564;53.326;10.356;2023-03-14T03:27:36;6.30;;;2.87;;
7045;SDS011;3564;53.326;10.356;2023-03-14T03:30:04;7.30;;;2.57;;
7045;SDS011;3564;53.326;10.356;2023-03-14T03:32:30;4.50;;;2.13;;
7045;SDS011;3564;53.326;10.356;2023-03-14T03:34:56;5.53;;;2.10;;
7045;SDS011;3564;53.326;10.356;2023-03-14T03:37:22;2.73;;;2.27;;
7045;SDS011;3564;53.326;10.356;2023-03-14T03:39:49;5.43;;;2.30;;
7045;SDS011;3564;53.326;10.356;2023-03-14T03:42:16;6.40;;;1.90;;
7045;SDS011;3564;53.326;10.356;2023-03-14T03:44:42;5.47;;;2.20;;
7045;SDS011;3564;53.326;10.356;2023-03-14T03:47:08;6.10;;;2.50;;
7045;SDS011;3564;53.326;10.356;2023-03-14T03:49:33;4.10;;;2.30;;
7045;SDS011;3564;53.326;10.356;2023-03-14T03:51:59;4.77;;;2.10;;
7045;SDS011;3564;53.326;10.356;2023-03-14T03:54:25;5.70;;;2.30;;
7045;SDS011;3564;53.326;10.356;2023-03-14T03:56:51;5.20;;;2.20;;
7045;SDS011;3564;53.326;10.356;2023-03-14T03:59:17;3.43;;;2.23;;
7045;SDS011;3564;53.326;10.356;2023-03-14T04:01:43;6.50;;;2.13;;
7045;SDS011;3564;53.326;10.356;2023-03-14T04:04:09;7.47;;;2.27;;
7045;SDS011;3564;53.326;10.356;2023-03-14T04:06:34;5.33;;;2.00;;
7045;SDS011;3564;53.326;10.356;2023-03-14T04:09:01;5.43;;;2.00;;
7045;SDS011;3564;53.326;10.356;2023-03-14T04:11:27;6.10;;;2.40;;
7045;SDS011;3564;53.326;10.356;2023-03-14T04:13:53;4.37;;;2.07;;
7045;SDS011;3564;53.326;10.356;2023-03-14T04:16:20;3.40;;;2.13;;
7045;SDS011;3564;53.326;10.356;2023-03-14T04:18:48;5.57;;;1.90;;
7045;SDS011;3564;53.326;10.356;2023-03-14T04:21:13;4.03;;;2.20;;
7045;SDS011;3564;53.326;10.356;2023-03-14T04:23:39;4.07;;;1.93;;
7045;SDS011;3564;53.326;10.356;2023-03-14T04:26:05;6.27;;;2.77;;
7045;SDS011;3564;53.326;10.356;2023-03-14T04:28:31;6.50;;;2.37;;
7045;SDS011;3564;53.326;10.356;2023-03-14T04:30:56;6.40;;;2.40;;
7045;SDS011;3564;53.326;10.356;2023-03-14T04:33:22;6.23;;;2.20;;
7045;SDS011;3564;53.326;10.356;2023-03-14T04:35:48;4.20;;;2.30;;
7045;SDS011;3564;53.326;10.356;2023-03-14T04:38:17;6.27;;;2.20;;
7045;SDS011;3564;53.326;10.356;2023-03-14T04:40:43;5.57;;;2.03;;
7045;SDS011;3564;53.326;10.356;2023-03-14T04:43:09;5.93;;;2.60;;
7045;SDS011;3564;53.326;10.356;2023-03-14T04:45:35;5.63;;;2.70;;
7045;SDS011;3564;53.326;10.356;2023-03-14T04:48:01;6.20;;;2.30;;
7045;SDS011;3564;53.326;10.356;2023-03-14T04:50:27;6.30;;;2.00;;
7045;SDS011;3564;53.326;10.356;2023-03-14T04:52:52;4.43;;;1.90;;
7045;SDS011;3564;53.326;10.356;2023-03-14T04:55:18;9.23;;;2.13;;
7045;SDS011;3564;53.326;10.356;2023-03-14T04:57:44;8.03;;;2.73;;
7045;SDS011;3564;53.326;10.356;2023-03-14T05:00:11;3.87;;;2.40;;
7045;SDS011;3564;53.326;10.356;2023-03-14T05:02:37;3.93;;;1.93;;
7045;SDS011;3564;53.326;10.356;2023-03-14T05:05:02;8.20;;;2.67;;
7045;SDS011;3564;53.326;10.356;2023-03-14T05:07:29;4.13;;;2.10;;
7045;SDS011;3564;53.326;10.356;2023-03-14T05:09:54;4.83;;;1.90;;
7045;SDS011;3564;53.326;10.356;2023-03-14T05:12:20;5.30;;;1.90;;
7045;SDS011;3564;53.326;10.356;2023-03-14T05:14:46;4.97;;;2.27;;
7045;SDS011;3564;53.326;10.356;2023-03-14T05:17:12;4.57;;;2.17;;
7045;SDS011;3564;53.326;10.356;2023-03-14T05:19:39;3.73;;;1.90;;
7045;SDS011;3564;53.326;10.356;2023-03-14T05:22:05;5.73;;;1.70;;
7045;SDS011;3564;53.326;10.356;2023-03-14T05:24:31;4.70;;;2.20;;
7045;SDS011;3564;53.326;10.356;2023-03-14T05:26:57;4.03;;;2.00;;
7045;SDS011;3564;53.326;10.356;2023-03-14T05:29:23;3.50;;;1.80;;
7045;SDS011;3564;53.326;10.356;2023-03-14T05:31:49;5.87;;;1.83;;
7045;SDS011;3564;53.326;10.356;2023-03-14T05:34:15;3.73;;;1.80;;
7045;SDS011;3564;53.326;10.356;2023-03-14T05:36:41;4.27;;;1.63;;
7045;SDS011;3564;53.326;10.356;2023-03-14T05:39:06;3.70;;;1.60;;
7045;SDS011;3564;53.326;10.356;2023-03-14T05:41:32;4.33;;;1.70;;
7045;SDS011;3564;53.326;10.356;2023-03-14T05:43:57;3.97;;;1.93;;
7045;SDS011;3564;53.326;10.356;2023-03-14T05:46:23;3.47;;;1.70;;
7045;SDS011;3564;53.326;10.356;2023-03-14T05:48:49;4.37;;;1.90;;
7045;SDS011;3564;53.326;10.356;2023-03-14T05:51:14;2.17;;;1.50;;
7045;SDS011;3564;53.326;10.356;2023-03-14T05:53:40;4.27;;;1.67;;
7045;SDS011;3564;53.326;10.356;2023-03-14T05:56:06;4.20;;;2.20;;
7045;SDS011;3564;53.326;10.356;2023-03-14T05:58:32;6.17;;;1.83;;
7045;SDS011;3564;53.326;10.356;2023-03-14T06:00:57;2.90;;;1.83;;
7045;SDS011;3564;53.326;10.356;2023-03-14T06:03:27;6.23;;;2.07;;
7045;SDS011;3564;53.326;10.356;2023-03-14T06:05:52;5.03;;;1.93;;
7045;SDS011;3564;53.326;10.356;2023-03-14T06:08:18;3.20;;;1.90;;
7045;SDS011;3564;53.326;10.356;2023-03-14T06:10:43;2.73;;;1.93;;
7045;SDS011;3564;53.326;10.356;2023-03-14T06:13:09;2.70;;;2.17;;
7045;SDS011;3564;53.326;10.356;2023-03-14T06:15:36;4.07;;;1.67;;
7045;SDS011;3564;53.326;10.356;2023-03-14T06:18:03;3.93;;;1.90;;
7045;SDS011;3564;53.326;10.356;2023-03-14T06:20:29;5.67;;;2.17;;
7045;SDS011;3564;53.326;10.356;2023-03-14T06:22:54;4.60;;;1.80;;
7045;SDS011;3564;53.326;10.356;2023-03-14T06:25:20;4.23;;;1.77;;
7045;SDS011;3564;53.326;10.356;2023-03-14T06:27:47;3.67;;;1.80;;
7045;SDS011;3564;53.326;10.356;2023-03-14T06:30:12;4.40;;;2.17;;
7045;SDS011;3564;53.326;10.356;2023-03-14T06:32:38;3.67;;;1.93;;
7045;SDS011;3564;53.326;10.356;2023-03-14T06:35:04;5.20;;;1.90;;
7045;SDS011;3564;53.326;10.356;2023-03-14T06:37:30;3.83;;;1.87;;
7045;SDS011;3564;53.326;10.356;2023-03-14T06:39:55;3.23;;;1.70;;
7045;SDS011;3564;53.326;10.356;2023-03-14T06:42:23;3.67;;;1.87;;
7045;SDS011;3564;53.326;10.356;2023-03-14T06:44:48;6.27;;;1.80;;
7045;SDS011;3564;53.326;10.356;2023-03-14T06:47:14;2.30;;;1.70;;
7045;SDS011;3564;53.326;10.356;2023-03-14T06:49:39;5.00;;;2.30;;
7045;SDS011;3564;53.326;10.356;2023-03-14T06:52:06;3.93;;;2.03;;
7045;SDS011;3564;53.326;10.356;2023-03-14T06:54:32;3.50;;;2.10;;
7045;SDS011;3564;53.326;10.356;2023-03-14T06:56:58;4.17;;;2.27;;
7045;SDS011;3564;53.326;10.356;2023-03-14T06:59:23;3.70;;;1.80;;
7045;SDS011;3564;53.326;10.356;2023-03-14T07:01:49;2.67;;;1.80;;
7045;SDS011;3564;53.326;10.356;2023-03-14T07:04:15;3.37;;;1.67;;
7045;SDS011;3564;53.326;10.356;2023-03-14T07:06:41;3.00;;;1.73;;
7045;SDS011;3564;53.326;10.356;2023-03-14T07:09:12;3.77;;;1.70;;
7045;SDS011;3564;53.326;10.356;2023-03-14T07:11:38;2.23;;;1.50;;
7045;SDS011;3564;53.326;10.356;2023-03-14T07:14:04;5.00;;;1.90;;
7045;SDS011;3564;53.326;10.356;2023-03-14T07:16:30;2.63;;;1.73;;
7045;SDS011;3564;53.326;10.356;2023-03-14T07:18:58;4.50;;;1.77;;
7045;SDS011;3564;53.326;10.356;2023-03-14T07:21:24;2.87;;;1.80;;
7045;SDS011;3564;53.326;10.356;2023-03-14T07:23:49;3.13;;;1.70;;
7045;SDS011;3564;53.326;10.356;2023-03-14T07:26:15;2.13;;;1.53;;
7045;SDS011;3564;53.326;10.356;2023-03-14T07:28:41;6.17;;;1.90;;
7045;SDS011;3564;53.326;10.356;2023-03-14T07:31:06;6.13;;;2.10;;
7045;SDS011;3564;53.326;10.356;2023-03-14T07:33:33;5.57;;;2.27;;
7045;SDS011;3564;53.326;10.356;2023-03-14T07:35:59;6.03;;;2.30;;
7045;SDS011;3564;53.326;10.356;2023-03-14T07:38:24;4.63;;;2.10;;
7045;SDS011;3564;53.326;10.356;2023-03-14T07:40:50;4.07;;;2.33;;
7045;SDS011;3564;53.326;10.356;2023-03-14T07:43:26;6.90;;;2.40;;
7045;SDS011;3564;53.326;10.356;2023-03-14T07:45:52;3.23;;;2.03;;
7045;SDS011;3564;53.326;10.356;2023-03-14T07:48:20;5.37;;;2.80;;
7045;SDS011;3564;53.326;10.356;2023-03-14T07:50:49;4.00;;;2.97;;
7045;SDS011;3564;53.326;10.356;2023-03-14T07:53:16;6.40;;;2.77;;
7045;SDS011;3564;53.326;10.356;2023-03-14T07:55:42;4.73;;;3.00;;
7045;SDS011;3564;53.326;10.356;2023-03-14T07:58:07;6.17;;;2.90;;
7045;SDS011;3564;53.326;10.356;2023-03-14T08:00:34;4.87;;;2.87;;
7045;SDS011;3564;53.326;10.356;2023-03-14T08:03:00;5.00;;;2.63;;
7045;SDS011;3564;53.326;10.356;2023-03-14T08:05:25;4.67;;;3.10;;
7045;SDS011;3564;53.326;10.356;2023-03-14T08:07:51;6.57;;;3.37;;
7045;SDS011;3564;53.326;10.356;2023-03-14T08:10:17;6.23;;;3.27;;
7045;SDS011;3564;53.326;10.356;2023-03-14T08:12:46;6.03;;;3.20;;
7045;SDS011;3564;53.326;10.356;2023-03-14T08:15:11;6.53;;;3.23;;
7045;SDS011;3564;53.326;10.356;2023-03-14T08:17:37;6.07;;;3.37;;
7045;SDS011;3564;53.326;10.356;2023-03-14T08:20:03;6.03;;;3.30;;
7045;SDS011;3564;53.326;10.356;2023-03-14T08:22:35;6.70;;;3.10;;
7045;SDS011;3564;53.326;10.356;2023-03-14T08:25:01;5.77;;;3.87;;
7045;SDS011;3564;53.326;10.356;2023-03-14T08:27:28;6.73;;;3.70;;
7045;SDS011;3564;53.326;10.356;2023-03-14T08:29:54;8.53;;;3.17;;
7045;SDS011;3564;53.326;10.356;2023-03-14T08:32:19;7.07;;;3.17;;
7045;SDS011;3564;53.326;10.356;2023-03-14T08:34:45;4.57;;;3.30;;
7045;SDS011;3564;53.326;10.356;2023-03-14T08:37:11;4.63;;;3.17;;
7045;SDS011;3564;53.326;10.356;2023-03-14T08:39:37;8.53;;;3.70;;
7045;SDS011;3564;53.326;10.356;2023-03-14T08:42:02;6.47;;;3.33;;
7045;SDS011;3564;53.326;10.356;2023-03-14T08:44:29;6.03;;;3.30;;
7045;SDS011;3564;53.326;10.356;2023-03-14T08:46:55;6.37;;;3.30;;
7045;SDS011;3564;53.326;10.356;2023-03-14T08:49:20;7.13;;;3.40;;
7045;SDS011;3564;53.326;10.356;2023-03-14T08:51:46;7.73;;;3.83;;
7045;SDS011;3564;53.326;10.356;2023-03-14T08:54:12;8.53;;;4.07;;
7045;SDS011;3564;53.326;10.356;2023-03-14T08:56:37;7.53;;;3.00;;
7045;SDS011;3564;53.326;10.356;2023-03-14T08:59:03;5.33;;;2.87;;
7045;SDS011;3564;53.326;10.356;2023-03-14T09:01:29;5.97;;;2.80;;
7045;SDS011;3564;53.326;10.356;2023-03-14T09:03:55;6.07;;;3.17;;
7045;SDS011;3564;53.326;10.356;2023-03-14T09:06:21;8.47;;;2.60;;
7045;SDS011;3564;53.326;10.356;2023-03-14T09:08:46;4.93;;;2.67;;
7045;SDS011;3564;53.326;10.356;2023-03-14T09:11:12;4.27;;;2.70;;
7045;SDS011;3564;53.326;10.356;2023-03-14T09:13:38;5.90;;;2.70;;
7045;SDS011;3564;53.326;10.356;2023-03-14T09:16:04;4.87;;;2.63;;
7045;SDS011;3564;53.326;10.356;2023-03-14T09:18:31;4.90;;;2.77;;
7045;SDS011;3564;53.326;10.356;2023-03-14T09:20:56;5.80;;;2.57;;
7045;SDS011;3564;53.326;10.356;2023-03-14T09:23:22;5.77;;;2.47;;
7045;SDS011;3564;53.326;10.356;2023-03-14T09:25:48;4.23;;;2.20;;
7045;SDS011;3564;53.326;10.356;2023-03-14T09:28:13;4.03;;;2.23;;
7045;SDS011;3564;53.326;10.356;2023-03-14T09:30:39;4.70;;;2.93;;
7045;SDS011;3564;53.326;10.356;2023-03-14T09:33:05;6.20;;;2.50;;
7045;SDS011;3564;53.326;10.356;2023-03-14T09:35:32;9.20;;;2.37;;
7045;SDS011;3564;53.326;10.356;2023-03-14T09:37:58;4.40;;;2.20;;
7045;SDS011;3564;53.326;10.356;2023-03-14T09:40:24;5.30;;;2.27;;
7045;SDS011;3564;53.326;10.356;2023-03-14T09:42:56;7.43;;;1.97;;
7045;SDS011;3564;53.326;10.356;2023-03-14T09:45:27;3.73;;;2.00;;
7045;SDS011;3564;53.326;10.356;2023-03-14T09:47:56;3.00;;;1.70;;
7045;SDS011;3564;53.326;10.356;2023-03-14T09:50:23;3.57;;;1.70;;
7045;SDS011;3564;53.326;10.356;2023-03-14T09:52:52;3.90;;;2.20;;
7045;SDS011;3564;53.326;10.356;2023-03-14T09:55:23;2.87;;;1.53;;
7045;SDS011;3564;53.326;10.356;2023-03-14T09:57:50;4.33;;;1.83;;
7045;SDS011;3564;53.326;10.356;2023-03-14T10:00:23;3.53;;;1.70;;
7045;SDS011;3564;53.326;10.356;2023-03-14T10:02:59;4.17;;;1.40;;
7045;SDS011;3564;53.326;10.356;2023-03-14T10:05:48;2.10;;;1.27;;
7045;SDS011;3564;53.326;10.356;2023-03-14T10:08:13;2.00;;;1.30;;
7045;SDS011;3564;53.326;10.356;2023-03-14T10:10:39;3.20;;;1.50;;
7045;SDS011;3564;53.326;10.356;2023-03-14T10:13:19;1.87;;;1.40;;
7045;SDS011;3564;53.326;10.356;2023-03-14T10:15:53;1.40;;;1.27;;
7045;SDS011;3564;53.326;10.356;2023-03-14T10:18:27;2.70;;;1.30;;
7045;SDS011;3564;53.326;10.356;2023-03-14T10:23:43;4.80;;;1.40;;
7045;SDS011;3564;53.326;10.356;2023-03-14T10:26:13;3.47;;;1.50;;
7045;SDS011;3564;53.326;10.356;2023-03-14T10:28:51;3.13;;;1.40;;
7045;SDS011;3564;53.326;10.356;2023-03-14T10:31:18;3.43;;;1.90;;
7045;SDS011;3564;53.326;10.356;2023-03-14T10:33:59;2.33;;;1.60;;
7045;SDS011;3564;53.326;10.356;2023-03-14T10:36:28;1.87;;;1.57;;
7045;SDS011;3564;53.326;10.356;2023-03-14T10:39:39;3.03;;;1.47;;
7045;SDS011;3564;53.326;10.356;2023-03-14T10:41:52;3.90;;;1.67;;
7045;SDS011;3564;53.326;10.356;2023-03-14T10:44:20;1.53;;;1.10;;
7045;SDS011;3564;53.326;10.356;2023-03-14T10:47:01;2.60;;;1.00;;
7045;SDS011;3564;53.326;10.356;2023-03-14T10:49:36;0.90;;;0.90;;
7045;SDS011;3564;53.326;10.356;2023-03-14T10:54:49;1.10;;;1.00;;
7045;SDS011;3564;53.326;10.356;2023-03-14T10:57:25;1.80;;;1.20;;
7045;SDS011;3564;53.326;10.356;2023-03-14T10:59:51;2.57;;;1.57;;
7045;SDS011;3564;53.326;10.356;2023-03-14T11:07:41;2.70;;;1.50;;
7045;SDS011;3564;53.326;10.356;2023-03-14T11:15:53;2.83;;;1.70;;
7045;SDS011;3564;53.326;10.356;2023-03-14T11:21:27;3.00;;;2.10;;
7045;SDS011;3564;53.326;10.356;2023-03-14T11:24:29;4.10;;;2.53;;
7045;SDS011;3564;53.326;10.356;2023-03-14T11:27:23;2.50;;;1.60;;
7045;SDS011;3564;53.326;10.356;2023-03-14T11:32:48;2.60;;;1.30;;
7045;SDS011;3564;53.326;10.356;2023-03-14T11:35:37;1.20;;;0.90;;
7045;SDS011;3564;53.326;10.356;2023-03-14T11:41:15;1.10;;;1.00;;
7045;SDS011;3564;53.326;10.356;2023-03-14T11:43:47;1.10;;;1.00;;
7045;SDS011;3564;53.326;10.356;2023-03-14T11:46:25;1.20;;;1.10;;
7045;SDS011;3564;53.326;10.356;2023-03-14T11:51:38;2.10;;;1.63;;
7045;SDS011;3564;53.326;10.356;2023-03-14T11:54:24;1.43;;;0.90;;
7045;SDS011;3564;53.326;10.356;2023-03-14T11:57:20;1.30;;;1.20;;
7045;SDS011;3564;53.326;10.356;2023-03-14T12:00:00;2.17;;;1.10;;
7045;SDS011;3564;53.326;10.356;2023-03-14T12:05:34;1.40;;;0.90;;
7045;SDS011;3564;53.326;10.356;2023-03-14T12:08:21;1.87;;;1.40;;
7045;SDS011;3564;53.326;10.356;2023-03-14T12:10:56;1.93;;;0.93;;
7045;SDS011;3564;53.326;10.356;2023-03-14T12:13:29;1.27;;;0.90;;
7045;SDS011;3564;53.326;10.356;2023-03-14T12:16:03;3.13;;;1.00;;
7045;SDS011;3564;53.326;10.356;2023-03-14T12:18:35;2.27;;;1.20;;
7045;SDS011;3564;53.326;10.356;2023-03-14T12:21:08;3.10;;;1.30;;
7045;SDS011;3564;53.326;10.356;2023-03-14T12:23:43;3.43;;;1.33;;
7045;SDS011;3564;53.326;10.356;2023-03-14T12:26:18;1.37;;;1.20;;
7045;SDS011;3564;53.326;10.356;2023-03-14T12:28:49;3.43;;;1.23;;
7045;SDS011;3564;53.326;10.356;2023-03-14T12:42:03;3.67;;;1.30;;
7045;SDS011;3564;53.326;10.356;2023-03-14T12:46:59;5.00;;;1.50;;
7045;SDS011;3564;53.326;10.356;2023-03-14T12:49:49;3.40;;;1.60;;
7045;SDS011;3564;53.326;10.356;2023-03-14T12:59:57;4.13;;;1.77;;
7045;SDS011;3564;53.326;10.356;2023-03-14T13:05:13;7.67;;;1.97;;
7045;SDS011;3564;53.326;10.356;2023-03-14T13:10:18;5.00;;;1.73;;
7045;SDS011;3564;53.326;10.356;2023-03-14T13:15:39;5.07;;;1.87;;
7045;SDS011;3564;53.326;10.356;2023-03-14T13:18:17;4.77;;;2.50;;
7045;SDS011;3564;53.326;10.356;2023-03-14T13:21:02;5.13;;;1.90;;
7045;SDS011;3564;53.326;10.356;2023-03-14T13:23:39;7.70;;;1.83;;
7045;SDS011;3564;53.326;10.356;2023-03-14T13:26:11;4.63;;;1.93;;
7045;SDS011;3564;53.326;10.356;2023-03-14T13:28:40;5.50;;;2.10;;
7045;SDS011;3564;53.326;10.356;2023-03-14T13:31:15;7.77;;;2.00;;
7045;SDS011;3564;53.326;10.356;2023-03-14T13:33:55;5.23;;;1.60;;
7045;SDS011;3564;53.326;10.356;2023-03-14T13:36:23;6.57;;;2.33;;
7045;SDS011;3564;53.326;10.356;2023-03-14T13:38:55;9.20;;;2.27;;
7045;SDS011;3564;53.326;10.356;2023-03-14T13:41:22;8.50;;;1.93;;
7045;SDS011;3564;53.326;10.356;2023-03-14T13:43:49;8.10;;;2.33;;
7045;SDS011;3564;53.326;10.356;2023-03-14T13:46:21;7.20;;;1.87;;
7045;SDS011;3564;53.326;10.356;2023-03-14T13:48:51;9.53;;;2.47;;
7045;SDS011;3564;53.326;10.356;2023-03-14T13:51:22;8.03;;;2.10;;
7045;SDS011;3564;53.326;10.356;2023-03-14T13:53:52;6.67;;;2.73;;
7045;SDS011;3564;53.326;10.356;2023-03-14T13:56:19;7.20;;;2.20;;
7045;SDS011;3564;53.326;10.356;2023-03-14T13:58:46;8.97;;;2.53;;
7045;SDS011;3564;53.326;10.356;2023-03-14T14:01:22;8.73;;;2.57;;
7045;SDS011;3564;53.326;10.356;2023-03-14T14:03:50;12.07;;;3.30;;
7045;SDS011;3564;53.326;10.356;2023-03-14T14:09:11;9.87;;;2.37;;
7045;SDS011;3564;53.326;10.356;2023-03-14T14:11:47;5.83;;;1.63;;
7045;SDS011;3564;53.326;10.356;2023-03-14T14:14:26;10.33;;;2.50;;
7045;SDS011;3564;53.326;10.356;2023-03-14T14:16:55;9.00;;;1.87;;
7045;SDS011;3564;53.326;10.356;2023-03-14T14:19:23;8.30;;;2.00;;
7045;SDS011;3564;53.326;10.356;2023-03-14T14:21:53;6.00;;;2.00;;
7045;SDS011;3564;53.326;10.356;2023-03-14T14:24:20;5.73;;;2.50;;
7045;SDS011;3564;53.326;10.356;2023-03-14T14:26:52;8.53;;;2.50;;
7045;SDS011;3564;53.326;10.356;2023-03-14T14:29:37;8.47;;;1.80;;
7045;SDS011;3564;53.326;10.356;2023-03-14T14:34:48;8.43;;;2.20;;
7045;SDS011;3564;53.326;10.356;2023-03-14T14:39:58;7.53;;;2.43;;
7045;SDS011;3564;53.326;10.356;2023-03-14T14:42:27;12.80;;;2.40;;
7045;SDS011;3564;53.326;10.356;2023-03-14T14:44:56;10.60;;;2.47;;
7045;SDS011;3564;53.326;10.356;2023-03-14T14:47:24;5.90;;;2.00;;
7045;SDS011;3564;53.326;10.356;2023-03-14T14:49:52;8.67;;;2.63;;
7045;SDS011;3564;53.326;10.356;2023-03-14T14:52:20;6.97;;;2.53;;
7045;SDS011;3564;53.326;10.356;2023-03-14T14:55:16;6.93;;;2.43;;
7045;SDS011;3564;53.326;10.356;2023-03-14T14:57:50;6.67;;;2.47;;
7045;SDS011;3564;53.326;10.356;2023-03-14T15:00:19;3.83;;;1.80;;
7045;SDS011;3564;53.326;10.356;2023-03-14T15:02:48;6.23;;;1.60;;
7045;SDS011;3564;53.326;10.356;2023-03-14T15:05:18;5.60;;;2.13;;
7045;SDS011;3564;53.326;10.356;2023-03-14T15:07:49;5.53;;;1.93;;
7045;SDS011;3564;53.326;10.356;2023-03-14T15:10:15;5.70;;;1.90;;
7045;SDS011;3564;53.326;10.356;2023-03-14T15:12:43;5.10;;;1.80;;
7045;SDS011;3564;53.326;10.356;2023-03-14T15:15:09;5.53;;;1.70;;
7045;SDS011;3564;53.326;10.356;2023-03-14T15:17:35;5.40;;;1.70;;
7045;SDS011;3564;53.326;10.356;2023-03-14T15:20:03;3.97;;;1.50;;
7045;SDS011;3564;53.326;10.356;2023-03-14T15:22:30;5.47;;;1.73;;
7045;SDS011;3564;53.326;10.356;2023-03-14T15:24:55;6.33;;;1.60;;
7045;SDS011;3564;53.326;10.356;2023-03-14T15:27:21;5.10;;;1.80;;
7045;SDS011;3564;53.326;10.356;2023-03-14T15:29:47;3.87;;;1.60;;
7045;SDS011;3564;53.326;10.356;2023-03-14T15:32:14;4.00;;;1.70;;
7045;SDS011;3564;53.326;10.356;2023-03-14T15:34:41;6.00;;;1.60;;
7045;SDS011;3564;53.326;10.356;2023-03-14T15:37:14;4.90;;;1.80;;
7045;SDS011;3564;53.326;10.356;2023-03-14T15:39:44;3.17;;;1.70;;
7045;SDS011;3564;53.326;10.356;2023-03-14T15:42:10;4.07;;;1.57;;
7045;SDS011;3564;53.326;10.356;2023-03-14T15:44:36;4.80;;;1.80;;
7045;SDS011;3564;53.326;10.356;2023-03-14T15:47:03;7.83;;;1.90;;
7045;SDS011;3564;53.326;10.356;2023-03-14T15:49:30;6.17;;;1.83;;
7045;SDS011;3564;53.326;10.356;2023-03-14T15:51:56;5.30;;;1.80;;
7045;SDS011;3564;53.326;10.356;2023-03-14T15:54:23;6.50;;;2.03;;
7045;SDS011;3564;53.326;10.356;2023-03-14T15:56:53;10.87;;;2.40;;
7045;SDS011;3564;53.326;10.356;2023-03-14T15:59:20;4.57;;;1.60;;
7045;SDS011;3564;53.326;10.356;2023-03-14T16:01:45;5.30;;;1.87;;
7045;SDS011;3564;53.326;10.356;2023-03-14T16:04:13;7.23;;;1.87;;
7045;SDS011;3564;53.326;10.356;2023-03-14T16:06:39;9.07;;;1.87;;
7045;SDS011;3564;53.326;10.356;2023-03-14T16:09:04;6.70;;;1.80;;
7045;SDS011;3564;53.326;10.356;2023-03-14T16:11:30;5.30;;;1.73;;
7045;SDS011;3564;53.326;10.356;2023-03-14T16:13:56;7.73;;;1.90;;
7045;SDS011;3564;53.326;10.356;2023-03-14T16:16:21;5.60;;;1.80;;
7045;SDS011;3564;53.326;10.356;2023-03-14T16:18:47;11.80;;;2.30;;
7045;SDS011;3564;53.326;10.356;2023-03-14T16:21:14;5.47;;;2.07;;
7045;SDS011;3564;53.326;10.356;2023-03-14T16:23:41;6.53;;;2.13;;
7045;SDS011;3564;53.326;10.356;2023-03-14T16:26:08;4.60;;;2.17;;
7045;SDS011;3564;53.326;10.356;2023-03-14T16:28:36;8.43;;;2.10;;
7045;SDS011;3564;53.326;10.356;2023-03-14T16:31:02;3.57;;;1.60;;
7045;SDS011;3564;53.326;10.356;2023-03-14T16:33:30;4.30;;;1.90;;